Time;durP1;ratioP1;P1;durP2;ratioP2;P2;SDS_P1;SDS_P2;PMS_P1;PMS_P2;Temp;Humidity;BMP_temperature;BMP_pressure;BME280_temperature;BME280_humidity;BME280_pressure;Samples;Min_cycle;Max_cycle;Signal;HPM_P1;HPM_P2
2022/10/26 00:02:25;;;;;;;13.88;6.43;;;;;;;15.34;63.31;101467.41;4953932;28;97116;-71
2022/10/26 00:04:52;;;;;;;11.57;7.47;;;;;;;15.32;63.25;101479.03;4950564;28;96861;-71
2022/10/26 00:07:18;;;;;;;12.05;7.13;;;;;;;15.45;62.94;101481.09;4956665;28;97865;-71
2022/10/26 00:09:44;;;;;;;11.27;7.00;;;;;;;15.22;63.18;101481.25;4951752;28;97821;-71
2022/10/26 00:12:11;;;;;;;15.30;7.60;;;;;;;15.43;62.73;101472.31;4951242;28;98742;-71
2022/10/26 00:14:37;;;;;;;10.00;6.50;;;;;;;15.25;62.82;101474.91;4950865;28;97207;-73
2022/10/26 00:17:05;;;;;;;8.93;6.63;;;;;;;15.05;63.43;101475.78;4948057;28;99654;-72
2022/10/26 00:19:33;;;;;;;10.00;6.40;;;;;;;15.11;63.26;101472.84;4951713;28;97524;-71
2022/10/26 00:22:00;;;;;;;13.77;7.03;;;;;;;15.17;63.78;101477.91;4950328;28;96897;-71
2022/10/26 00:24:26;;;;;;;11.65;7.13;;;;;;;15.53;62.67;101479.00;4952466;28;96876;-72
2022/10/26 00:26:52;;;;;;;14.15;7.45;;;;;;;15.75;61.87;101478.91;4951141;28;99090;-72
2022/10/26 00:29:19;;;;;;;10.10;6.68;;;;;;;15.61;61.92;101480.47;4954396;28;99131;-72
2022/10/26 00:31:45;;;;;;;13.30;6.85;;;;;;;15.54;62.16;101477.22;4952820;28;96708;-71
2022/10/26 00:34:13;;;;;;;12.20;7.00;;;;;;;15.67;61.55;101493.53;4949614;28;97008;-71
2022/10/26 00:36:39;;;;;;;9.70;7.40;;;;;;;14.93;63.48;101503.78;4946452;28;98786;-71
2022/10/26 00:39:06;;;;;;;14.23;6.70;;;;;;;15.05;63.64;101497.94;4946940;28;99157;-71
2022/10/26 00:41:34;;;;;;;11.32;6.57;;;;;;;15.31;63.20;101499.47;4952046;28;96820;-71
2022/10/26 00:44:01;;;;;;;11.30;7.32;;;;;;;15.52;63.33;101503.91;4950001;28;97360;-71
2022/10/26 00:46:32;;;;;;;13.48;7.45;;;;;;;15.50;62.61;101500.41;4951694;28;98739;-72
2022/10/26 00:49:01;;;;;;;9.07;6.60;;;;;;;15.39;62.34;101502.69;4950198;28;98733;-70
2022/10/26 00:51:32;;;;;;;15.55;6.57;;;;;;;15.39;62.30;101502.69;4948833;28;99852;-71
2022/10/26 00:54:00;;;;;;;12.15;7.13;;;;;;;15.09;63.36;101501.34;4948273;28;96887;-71
2022/10/26 00:56:28;;;;;;;16.27;7.15;;;;;;;15.27;62.37;101492.56;4951172;28;99153;-72
2022/10/26 00:58:58;;;;;;;10.45;6.45;;;;;;;15.63;61.58;101486.56;4954220;28;101245;-72
2022/10/26 01:01:25;;;;;;;7.70;6.25;;;;;;;15.67;61.74;101491.72;4947664;28;97208;-70
2022/10/26 01:03:51;;;;;;;11.13;6.75;;;;;;;15.77;61.85;101487.69;4951114;28;98334;-70
2022/10/26 01:06:18;;;;;;;12.88;6.90;;;;;;;15.84;61.85;101489.16;4954502;28;99523;-71
2022/10/26 01:08:47;;;;;;;15.15;6.82;;;;;;;15.53;61.64;101481.69;4950732;28;98781;-71
2022/10/26 01:11:14;;;;;;;14.90;6.10;;;;;;;15.35;61.74;101487.78;4952685;28;98608;-71
2022/10/26 01:13:42;;;;;;;14.48;6.78;;;;;;;15.21;62.32;101487.50;4948820;28;97713;-71
2022/10/26 01:16:27;;;;;;;11.95;6.40;;;;;;;14.98;63.08;101484.94;4951394;28;99382;-70
2022/10/26 01:19:08;;;;;;;10.88;6.35;;;;;;;15.47;61.93;101487.25;4948227;28;98754;-71
2022/10/26 01:21:48;;;;;;;14.30;8.10;;;;;;;15.10;62.34;101484.41;4950671;28;96867;-71
2022/10/26 01:24:31;;;;;;;12.43;7.38;;;;;;;14.85;62.94;101483.72;4949112;28;98704;-70
2022/10/26 01:27:09;;;;;;;10.10;7.00;;;;;;;15.01;62.72;101483.03;4950555;28;99460;-71
2022/10/26 01:30:11;;;;;;;8.65;6.38;;;;;;;14.98;62.89;101472.50;4952547;28;99189;-71
2022/10/26 01:32:45;;;;;;;8.55;6.90;;;;;;;14.74;63.43;101476.19;4949253;28;96779;-72
2022/10/26 01:35:16;;;;;;;9.45;6.25;;;;;;;14.77;63.39;101475.22;4950405;28;97927;-72
2022/10/26 01:37:47;;;;;;;13.35;6.47;;;;;;;14.75;63.19;101477.94;4950144;28;99118;-72
2022/10/26 01:40:19;;;;;;;13.25;7.07;;;;;;;14.95;62.54;101475.31;4949286;28;98853;-71
2022/10/26 01:42:50;;;;;;;13.07;6.82;;;;;;;14.81;62.36;101476.81;4947774;28;96835;-71
2022/10/26 01:45:19;;;;;;;10.85;7.00;;;;;;;14.75;63.11;101468.16;4953504;28;97118;-71
2022/10/26 01:47:47;;;;;;;7.75;5.85;;;;;;;14.70;63.17;101464.78;4956246;28;99034;-72
2022/10/26 01:50:16;;;;;;;9.15;6.22;;;;;;;14.62;63.17;101464.28;4953610;28;98897;-71
2022/10/26 01:52:42;;;;;;;11.02;6.90;;;;;;;14.49;63.81;101468.34;4953764;28;99308;-71
2022/10/26 01:55:39;;;;;;;13.98;6.65;;;;;;;14.63;63.50;101465.13;4953295;28;97332;-71
2022/10/26 01:58:15;;;;;;;9.35;6.45;;;;;;;14.49;64.05;101468.34;4953942;28;98924;-71
2022/10/26 02:00:54;;;;;;;18.67;7.43;;;;;;;14.58;63.49;101457.31;4954054;28;98072;-71
2022/10/26 02:03:33;;;;;;;12.63;6.88;;;;;;;14.63;63.52;101458.03;4953840;28;96935;-71
2022/10/26 02:06:07;;;;;;;14.43;6.65;;;;;;;14.42;63.42;101463.34;4952420;28;96941;-71
2022/10/26 02:08:54;;;;;;;13.80;6.68;;;;;;;14.40;63.91;101458.06;4954949;28;97653;-71
2022/10/26 02:11:30;;;;;;;10.88;6.80;;;;;;;14.47;63.18;101453.38;4954756;28;98933;-71
2022/10/26 02:14:06;;;;;;;11.98;6.63;;;;;;;14.24;64.03;101455.13;4950487;28;96926;-71
2022/10/26 02:16:43;;;;;;;14.02;7.40;;;;;;;14.32;64.05;101452.16;4954555;28;97082;-71
2022/10/26 02:19:15;;;;;;;;;;;;;;;14.28;64.16;101453.22;4952796;28;99514;-71
2022/10/26 02:21:46;;;;;;;12.98;7.82;;;;;;;14.53;63.21;101453.13;4955045;28;100056;-71
2022/10/26 02:24:15;;;;;;;15.07;7.95;;;;;;;14.82;62.60;101442.16;4953905;28;97734;-71
2022/10/26 02:26:46;;;;;;;11.95;6.13;;;;;;;14.75;62.90;101440.69;4953261;28;96880;-71
2022/10/26 02:29:18;;;;;;;12.02;7.00;;;;;;;14.82;62.35;101441.28;4953025;28;99240;-72
2022/10/26 02:31:48;;;;;;;11.00;6.70;;;;;;;14.61;63.13;101451.03;4949187;28;99217;-72
2022/10/26 02:34:21;;;;;;;11.05;6.75;;;;;;;14.61;62.75;101441.25;4950686;28;96838;-72
2022/10/26 02:36:50;;;;;;;12.88;6.97;;;;;;;14.74;62.59;101450.47;4954057;28;96957;-71
2022/10/26 02:39:19;;;;;;;10.60;7.03;;;;;;;14.27;63.66;101449.69;4953806;28;98921;-71
2022/10/26 02:41:48;;;;;;;9.52;6.40;;;;;;;14.21;63.92;101454.38;4953619;28;99243;-70
2022/10/26 02:44:21;;;;;;;10.60;6.20;;;;;;;14.06;64.98;101449.66;4948903;28;96849;-71
2022/10/26 02:46:49;;;;;;;8.43;6.35;;;;;;;14.40;64.00;101459.88;4952756;28;97017;-72
2022/10/26 02:49:16;;;;;;;10.73;7.07;;;;;;;14.46;63.86;101456.97;4953151;28;100015;-71
2022/10/26 02:51:49;;;;;;;13.05;7.28;;;;;;;14.51;63.65;101453.19;4952633;28;99442;-71
2022/10/26 02:54:21;;;;;;;12.48;6.78;;;;;;;14.51;63.79;101457.63;4951386;28;96839;-72
2022/10/26 02:56:52;;;;;;;15.50;7.38;;;;;;;14.61;63.67;101465.19;4956567;28;97424;-72
2022/10/26 02:59:22;;;;;;;9.18;6.32;;;;;;;14.57;63.16;101462.72;4953035;28;99323;-71
2022/10/26 03:01:51;;;;;;;15.95;7.15;;;;;;;14.60;63.11;101466.13;4953886;28;98832;-71
2022/10/26 03:04:17;;;;;;;15.40;7.22;;;;;;;14.54;63.44;101462.84;4949188;28;97501;-71
2022/10/26 03:06:52;;;;;;;16.30;7.93;;;;;;;14.84;63.53;101452.72;4956039;28;98660;-71
2022/10/26 03:09:18;;;;;;;11.88;7.85;;;;;;;14.94;62.71;101464.72;4953343;28;98905;-71
2022/10/26 03:11:45;;;;;;;9.38;6.45;;;;;;;14.69;62.89;101471.06;4952512;28;98809;-70
2022/10/26 03:14:11;;;;;;;10.00;6.80;;;;;;;14.61;63.43;101462.53;4953110;28;96751;-71
2022/10/26 03:16:38;;;;;;;14.68;6.80;;;;;;;14.94;62.77;101468.25;4952906;28;96887;-71
2022/10/26 03:19:05;;;;;;;13.20;7.00;;;;;;;14.58;63.75;101464.44;4949723;28;98290;-71
2022/10/26 03:21:32;;;;;;;12.60;6.70;;;;;;;14.77;63.78;101465.41;4950760;28;98014;-71
2022/10/26 03:23:58;;;;;;;11.93;6.60;;;;;;;14.62;64.20;101458.94;4957188;28;98372;-72
2022/10/26 03:26:25;;;;;;;14.90;6.47;;;;;;;14.80;63.68;101467.09;4954493;28;96935;-70
2022/10/26 03:28:51;;;;;;;9.35;6.70;;;;;;;14.59;64.06;101472.34;4953730;28;100610;-71
2022/10/26 03:31:18;;;;;;;13.07;6.95;;;;;;;14.61;64.45;101469.66;4952699;28;98939;-72
2022/10/26 03:33:44;;;;;;;17.77;7.03;;;;;;;14.79;63.69;101470.69;4951800;28;96810;-71
2022/10/26 03:36:12;;;;;;;12.70;6.65;;;;;;;14.57;64.43;101471.53;4953880;28;96884;-71
2022/10/26 03:38:38;;;;;;;11.23;6.88;;;;;;;14.67;64.11;101470.25;4952110;28;98966;-71
2022/10/26 03:41:05;;;;;;;13.65;6.93;;;;;;;14.58;64.77;101467.97;4947511;28;99203;-71
2022/10/26 03:43:31;;;;;;;15.55;6.47;;;;;;;14.79;63.97;101471.53;4952379;28;96800;-71
2022/10/26 03:45:57;;;;;;;12.75;6.45;;;;;;;14.66;64.55;101467.66;4954020;28;97010;-71
2022/10/26 03:48:24;;;;;;;12.35;6.30;;;;;;;14.96;63.59;101466.41;4952388;28;99343;-71
2022/10/26 03:50:50;;;;;;;10.27;6.40;;;;;;;14.80;63.57;101469.75;4952057;28;98606;-71
2022/10/26 03:53:18;;;;;;;10.52;6.68;;;;;;;14.74;64.09;101462.91;4953930;28;96749;-70
2022/10/26 03:55:45;;;;;;;10.20;7.10;;;;;;;14.88;63.48;101468.50;4950877;28;97918;-70
2022/10/26 03:58:11;;;;;;;12.57;6.28;;;;;;;14.66;64.24;101457.88;4953554;28;99272;-73
2022/10/26 04:00:37;;;;;;;10.75;5.97;;;;;;;14.83;63.82;101464.31;4952607;28;98868;-71
2022/10/26 04:03:04;;;;;;;12.75;6.00;;;;;;;14.79;63.81;101463.56;4951525;28;98739;-71
2022/10/26 04:05:30;;;;;;;9.63;5.80;;;;;;;14.62;64.53;101466.94;4951857;28;96878;-72
2022/10/26 04:07:58;;;;;;;12.77;5.82;;;;;;;14.80;63.75;101467.09;4952427;28;98147;-71
2022/10/26 04:10:27;;;;;;;20.25;6.65;;;;;;;14.71;64.10;101463.00;4951385;28;98674;-71
2022/10/26 04:12:54;;;;;;;8.73;6.05;;;;;;;14.89;63.61;101461.41;4952037;28;97674;-71
2022/10/26 04:15:22;;;;;;;9.88;5.80;;;;;;;14.75;64.14;101469.94;4947841;28;96754;-72
2022/10/26 04:17:48;;;;;;;11.13;5.72;;;;;;;14.75;63.86;101478.81;4949755;28;101592;-71
2022/10/26 04:20:15;;;;;;;12.02;5.70;;;;;;;14.74;63.57;101471.75;4952082;28;98702;-71
2022/10/26 04:22:42;;;;;;;10.90;5.78;;;;;;;14.83;63.39;101465.19;4943493;28;96929;-71
2022/10/26 04:25:10;;;;;;;11.93;5.90;;;;;;;14.89;63.13;101466.72;4951700;28;96769;-71
2022/10/26 04:27:37;;;;;;;9.95;6.15;;;;;;;14.62;64.32;101471.38;4949474;28;99072;-71
2022/10/26 04:30:08;;;;;;;11.82;5.97;;;;;;;14.63;63.96;101474.00;4946642;28;99387;-71
2022/10/26 04:32:35;;;;;;;13.07;5.80;;;;;;;14.67;63.66;101470.25;4951053;28;96986;-72
2022/10/26 04:35:01;;;;;;;13.75;6.47;;;;;;;14.70;63.95;101470.13;4950775;28;97308;-72
2022/10/26 04:37:27;;;;;;;10.95;5.97;;;;;;;14.56;64.02;101475.16;4951008;28;97926;-71
2022/10/26 04:39:54;;;;;;;12.40;6.55;;;;;;;14.72;63.51;101472.72;4952788;28;99329;-72
2022/10/26 04:42:20;;;;;;;9.98;5.55;;;;;;;14.65;64.09;101477.44;4951334;28;96973;-72
2022/10/26 04:44:48;;;;;;;10.10;5.72;;;;;;;14.50;64.29;101475.41;4951393;28;97602;-70
2022/10/26 04:47:14;;;;;;;14.38;5.75;;;;;;;14.52;64.39;101473.53;4949748;28;102812;-71
2022/10/26 04:49:40;;;;;;;10.80;6.15;;;;;;;14.56;64.20;101479.59;4951236;28;97819;-71
2022/10/26 04:52:07;;;;;;;8.90;5.95;;;;;;;14.44;64.73;101480.09;4951275;28;97065;-72
2022/10/26 04:54:33;;;;;;;11.00;6.43;;;;;;;14.38;64.94;101475.88;4950758;28;96969;-71
2022/10/26 04:57:00;;;;;;;8.82;5.70;;;;;;;14.62;64.03;101474.03;4951523;28;98931;-72
2022/10/26 04:59:26;;;;;;;12.98;5.72;;;;;;;14.51;64.24;101471.78;4952234;28;97648;-71
2022/10/26 05:01:54;;;;;;;9.93;5.75;;;;;;;14.68;63.77;101472.00;4952296;28;97150;-71
2022/10/26 05:04:20;;;;;;;11.60;6.05;;;;;;;14.69;63.37;101468.41;4949684;28;98651;-72
2022/10/26 05:06:47;;;;;;;8.85;5.90;;;;;;;14.70;63.51;101467.47;4952499;28;99020;-71
2022/10/26 05:09:13;;;;;;;11.98;6.38;;;;;;;14.43;64.33;101465.94;4951057;28;97786;-71
2022/10/26 05:11:39;;;;;;;11.43;5.78;;;;;;;14.43;64.26;101467.72;4950390;28;97016;-72
2022/10/26 05:14:06;;;;;;;14.57;5.85;;;;;;;14.60;64.01;101467.91;4943584;28;97562;-73
2022/10/26 05:16:32;;;;;;;13.00;6.70;;;;;;;14.45;64.45;101466.72;4950736;28;100974;-73
2022/10/26 05:19:00;;;;;;;10.60;6.40;;;;;;;14.41;64.50;101470.44;4950725;28;99195;-71
2022/10/26 05:21:26;;;;;;;14.80;6.65;;;;;;;14.52;64.40;101465.56;4950798;28;96984;-71
2022/10/26 05:23:54;;;;;;;7.10;6.13;;;;;;;14.46;64.22;101471.13;4953942;28;97501;-71
2022/10/26 05:26:20;;;;;;;13.82;6.18;;;;;;;14.46;64.58;101479.09;4947308;28;99055;-71
2022/10/26 05:28:47;;;;;;;13.40;6.05;;;;;;;14.42;64.32;101480.16;4948435;28;97929;-71
2022/10/26 05:31:14;;;;;;;9.23;6.53;;;;;;;14.40;64.37;101474.03;4953061;28;97668;-71
2022/10/26 05:33:40;;;;;;;13.20;6.38;;;;;;;14.39;64.54;101466.09;4948815;28;99046;-72
2022/10/26 05:36:08;;;;;;;11.18;6.85;;;;;;;14.60;63.92;101468.78;4943315;28;99344;-71
2022/10/26 05:38:35;;;;;;;11.30;6.50;;;;;;;14.84;63.19;101466.88;4949945;28;98863;-72
2022/10/26 05:41:01;;;;;;;10.90;5.95;;;;;;;14.67;63.38;101469.41;4947908;28;99296;-71
2022/10/26 05:43:27;;;;;;;10.98;6.72;;;;;;;14.80;62.95;101475.94;4956044;28;98523;-72
2022/10/26 05:45:54;;;;;;;9.23;5.78;;;;;;;14.64;63.39;101475.69;4953898;28;99632;-72
2022/10/26 05:48:21;;;;;;;12.43;6.10;;;;;;;14.62;63.10;101477.56;4954833;28;98869;-71
2022/10/26 05:50:47;;;;;;;10.85;6.18;;;;;;;14.48;63.13;101479.91;4954784;28;97176;-71
2022/10/26 05:53:15;;;;;;;10.63;6.78;;;;;;;14.39;63.70;101485.59;4951647;28;97398;-72
2022/10/26 05:55:43;;;;;;;10.07;6.32;;;;;;;14.59;62.94;101488.31;4954720;28;98929;-72
2022/10/26 05:58:10;;;;;;;11.45;6.07;;;;;;;14.49;63.32;101491.41;4955908;28;99116;-72
2022/10/26 06:00:41;;;;;;;11.73;6.65;;;;;;;14.67;63.07;101488.00;4950256;28;96996;-72
2022/10/26 06:03:20;;;;;;;11.80;7.10;;;;;;;14.70;62.56;101485.25;4953605;28;96976;-72
2022/10/26 06:05:52;;;;;;;10.63;6.25;;;;;;;14.72;62.81;101484.22;4952765;28;97834;-71
2022/10/26 06:08:21;;;;;;;17.02;7.25;;;;;;;14.74;62.45;101485.03;4949882;28;99321;-72
2022/10/26 06:10:48;;;;;;;11.68;6.72;;;;;;;14.80;62.69;101491.03;4954963;28;96778;-72
2022/10/26 06:13:16;;;;;;;14.73;7.45;;;;;;;14.85;62.12;101486.38;4953633;28;97214;-72
2022/10/26 06:15:51;;;;;;;12.93;7.05;;;;;;;14.78;62.11;101485.78;4958395;28;98994;-73
2022/10/26 06:18:29;;;;;;;11.18;5.90;;;;;;;14.87;62.11;101492.50;4952468;28;102260;-72
2022/10/26 06:21:10;;;;;;;11.23;6.65;;;;;;;14.38;63.35;101488.28;4949408;28;97624;-73
2022/10/26 06:23:47;;;;;;;15.70;6.38;;;;;;;14.74;62.44;101490.38;4946204;28;98070;-71
2022/10/26 06:26:24;;;;;;;9.63;6.15;;;;;;;14.46;63.40;101496.84;4950905;28;99538;-72
2022/10/26 06:29:03;;;;;;;13.52;7.18;;;;;;;14.46;63.35;101495.06;4953028;28;98746;-72
2022/10/26 06:31:29;;;;;;;10.23;6.18;;;;;;;14.65;63.23;101503.16;4952341;28;96815;-72
2022/10/26 06:33:59;;;;;;;10.35;6.45;;;;;;;14.67;62.82;101501.31;4949681;28;97822;-73
2022/10/26 06:36:27;;;;;;;11.18;6.60;;;;;;;14.75;62.69;101510.72;4948257;28;99186;-71
2022/10/26 06:38:59;;;;;;;14.18;6.70;;;;;;;14.87;62.53;101508.47;4950014;28;99355;-72
2022/10/26 06:41:27;;;;;;;9.48;6.22;;;;;;;14.82;62.60;101505.16;4951197;28;97171;-73
2022/10/26 06:43:53;;;;;;;11.90;7.57;;;;;;;14.86;62.46;101506.75;4945777;28;96786;-71
2022/10/26 06:46:29;;;;;;;16.60;6.60;;;;;;;14.79;62.37;101510.59;4952511;28;98264;-72
2022/10/26 06:49:02;;;;;;;15.20;6.93;;;;;;;14.79;62.85;101514.13;4954865;28;99332;-73
2022/10/26 06:51:31;;;;;;;10.52;6.82;;;;;;;14.99;61.90;101507.97;4954000;28;96845;-72
2022/10/26 06:54:06;;;;;;;13.73;7.35;;;;;;;14.94;62.63;101512.63;4954029;28;96897;-72
2022/10/26 06:56:34;;;;;;;14.07;7.22;;;;;;;14.94;62.46;101517.94;4953276;28;98967;-71
2022/10/26 06:59:14;;;;;;;15.00;7.72;;;;;;;15.22;61.55;101509.69;4954046;28;102352;-72
2022/10/26 07:01:40;;;;;;;13.60;6.90;;;;;;;14.91;62.74;101515.41;4954612;28;96673;-73
2022/10/26 07:04:07;;;;;;;15.30;7.35;;;;;;;15.27;61.62;101513.88;4953770;28;96784;-74
2022/10/26 07:06:33;;;;;;;14.68;6.72;;;;;;;15.25;61.57;101509.53;4954095;28;99065;-73
2022/10/26 07:09:01;;;;;;;11.95;7.10;;;;;;;15.34;61.43;101507.34;4954421;28;99427;-73
2022/10/26 07:11:27;;;;;;;12.38;7.43;;;;;;;14.86;62.27;101514.72;4954132;28;96765;-75
2022/10/26 07:13:54;;;;;;;9.88;7.00;;;;;;;15.32;61.18;101511.88;4949316;28;96797;-73
2022/10/26 07:16:22;;;;;;;13.18;6.68;;;;;;;15.24;61.39;101508.66;4953394;28;99183;-74
2022/10/26 07:18:48;;;;;;;16.35;7.03;;;;;;;15.31;61.68;101515.47;4951840;28;98777;-72
2022/10/26 07:21:15;;;;;;;26.20;7.07;;;;;;;15.39;61.47;101518.66;4947696;28;96774;-73
2022/10/26 07:23:41;;;;;;;15.10;6.95;;;;;;;15.48;61.42;101518.28;4955522;28;97094;-73
2022/10/26 07:26:09;;;;;;;8.85;6.45;;;;;;;15.38;61.38;101514.25;4953899;28;97682;-73
2022/10/26 07:28:36;;;;;;;12.07;6.40;;;;;;;15.08;61.92;101505.81;4952381;28;97444;-73
2022/10/26 07:31:04;;;;;;;12.35;6.00;;;;;;;15.33;61.65;101518.94;4951724;28;96736;-73
2022/10/26 07:33:30;;;;;;;11.25;6.38;;;;;;;15.55;61.46;101516.25;4950956;28;97926;-72
2022/10/26 07:35:58;;;;;;;11.25;6.28;;;;;;;15.54;61.26;101520.69;4952722;28;100279;-72
2022/10/26 07:38:25;;;;;;;11.77;6.78;;;;;;;15.76;61.27;101525.94;4952802;28;98926;-72
2022/10/26 07:40:53;;;;;;;15.18;7.57;;;;;;;15.93;60.95;101520.72;4957611;28;96744;-72
2022/10/26 07:43:21;;;;;;;15.02;7.05;;;;;;;15.54;61.82;101517.16;4953794;28;96693;-72
2022/10/26 07:45:49;;;;;;;19.83;7.30;;;;;;;15.95;60.97;101513.50;4949497;28;99926;-73
2022/10/26 07:48:15;;;;;;;15.23;7.88;;;;;;;16.26;60.44;101517.44;4953455;28;98037;-72
2022/10/26 07:50:41;;;;;;;14.98;7.78;;;;;;;16.01;61.20;101517.72;4953596;28;96749;-74
2022/10/26 07:53:08;;;;;;;15.15;7.65;;;;;;;16.01;61.39;101519.50;4953844;28;96845;-72
2022/10/26 07:55:34;;;;;;;12.98;7.28;;;;;;;16.07;61.18;101516.56;4953020;28;98994;-72
2022/10/26 07:58:01;;;;;;;16.27;7.82;;;;;;;16.31;60.76;101516.28;4953911;28;98996;-72
2022/10/26 08:00:29;;;;;;;19.05;8.48;;;;;;;16.33;60.64;101517.09;4952547;28;97497;-72
2022/10/26 08:02:56;;;;;;;10.40;7.45;;;;;;;16.14;61.32;101513.53;4939037;28;97056;-72
2022/10/26 08:05:22;;;;;;;16.42;8.00;;;;;;;16.45;59.95;101517.44;4949786;28;98230;-72
2022/10/26 08:07:52;;;;;;;15.55;7.63;;;;;;;16.61;59.18;101513.97;4949089;28;97621;-73
2022/10/26 08:10:18;;;;;;;18.95;8.35;;;;;;;16.83;58.89;101519.13;4949915;28;98112;-73
2022/10/26 08:12:45;;;;;;;25.23;8.43;;;;;;;16.65;59.83;101518.25;4950828;28;97052;-74
2022/10/26 08:15:11;;;;;;;20.05;8.52;;;;;;;16.71;59.59;101525.06;4950255;28;99197;-72
2022/10/26 08:17:39;;;;;;;16.27;9.00;;;;;;;16.86;59.36;101523.47;4946480;28;99596;-74
2022/10/26 08:20:07;;;;;;;19.98;8.40;;;;;;;16.95;59.58;101531.00;4950239;28;96810;-72
2022/10/26 08:22:34;;;;;;;13.52;8.48;;;;;;;16.91;59.29;101530.31;4951588;28;96821;-72
2022/10/26 08:25:00;;;;;;;18.02;8.18;;;;;;;16.90;58.95;101525.03;4951203;28;99257;-73
2022/10/26 08:27:27;;;;;;;15.57;7.40;;;;;;;16.83;59.30;101523.59;4953608;28;102295;-72
2022/10/26 08:29:53;;;;;;;15.15;7.30;;;;;;;16.96;59.13;101533.59;4948444;28;96787;-72
2022/10/26 08:32:20;;;;;;;11.40;7.55;;;;;;;16.89;59.16;101531.31;4950476;28;97320;-73
2022/10/26 08:34:47;;;;;;;12.10;7.25;;;;;;;17.23;58.32;101528.69;4954047;28;98891;-74
2022/10/26 08:37:14;;;;;;;16.27;7.93;;;;;;;17.32;58.50;101528.25;4950827;28;99297;-72
2022/10/26 08:39:40;;;;;;;14.13;7.38;;;;;;;17.45;57.67;101528.47;4951244;28;97168;-73
2022/10/26 08:42:13;;;;;;;11.63;7.22;;;;;;;17.50;57.54;101521.06;4951841;28;96868;-73
2022/10/26 08:44:43;;;;;;;15.88;7.90;;;;;;;17.66;57.20;101524.69;4948569;28;101719;-72
2022/10/26 08:47:16;;;;;;;19.75;8.60;;;;;;;17.50;57.53;101523.75;4950864;28;99970;-73
2022/10/26 08:49:50;;;;;;;20.05;8.25;;;;;;;17.65;57.23;101531.00;4950240;28;96908;-72
2022/10/26 08:52:23;;;;;;;12.43;7.45;;;;;;;17.99;56.47;101529.19;4952989;28;96811;-72
2022/10/26 08:54:52;;;;;;;15.43;6.97;;;;;;;18.15;55.82;101525.59;4947908;28;98556;-73
2022/10/26 08:57:25;;;;;;;15.23;8.18;;;;;;;18.04;56.46;101525.34;4949791;28;97595;-73
2022/10/26 08:59:57;;;;;;;15.00;8.05;;;;;;;18.18;56.32;101521.91;4950350;28;97204;-72
2022/10/26 09:02:24;;;;;;;12.20;7.07;;;;;;;18.39;55.55;101528.72;4949937;28;96818;-74
2022/10/26 09:04:54;;;;;;;12.70;7.07;;;;;;;18.50;55.20;101525.47;4948208;28;102225;-72
2022/10/26 09:07:35;;;;;;;15.60;7.68;;;;;;;18.45;54.52;101517.69;4951600;28;98817;-72
2022/10/26 09:10:16;;;;;;;10.90;7.20;;;;;;;18.52;54.45;101526.22;4950944;28;96929;-72
2022/10/26 09:12:48;;;;;;;13.73;6.97;;;;;;;18.32;54.95;101522.84;4949735;28;97778;-71
2022/10/26 09:15:25;;;;;;;12.43;7.32;;;;;;;18.41;54.90;101521.50;4950067;28;98183;-72
2022/10/26 09:18:03;;;;;;;13.70;6.95;;;;;;;18.53;54.85;101520.81;4948583;28;97518;-72
2022/10/26 09:20:57;;;;;;;11.95;7.30;;;;;;;18.39;54.73;101523.38;4949423;28;97189;-72
2022/10/26 09:23:42;;;;;;;11.98;6.60;;;;;;;18.74;54.08;101528.59;4949402;28;96856;-73
2022/10/26 09:26:14;;;;;;;17.45;7.05;;;;;;;18.95;53.89;101527.38;4948160;28;99183;-72
2022/10/26 09:28:41;;;;;;;11.65;6.32;;;;;;;19.04;53.82;101530.38;4950083;28;99362;-74
2022/10/26 09:31:15;;;;;;;11.40;6.07;;;;;;;19.13;53.75;101528.97;4949425;28;96839;-72
2022/10/26 09:33:41;;;;;;;12.20;5.93;;;;;;;19.49;52.38;101521.44;4948488;28;97892;-72
2022/10/26 09:36:13;;;;;;;13.43;6.15;;;;;;;19.32;52.41;101518.03;4948187;28;97724;-72
2022/10/26 09:38:43;;;;;;;11.40;5.60;;;;;;;19.25;52.69;101520.22;4947558;28;98932;-72
2022/10/26 09:41:23;;;;;;;13.15;5.45;;;;;;;19.25;52.02;101517.53;4946222;28;96815;-71
2022/10/26 09:43:57;;;;;;;9.32;5.22;;;;;;;19.13;52.82;101531.66;4949854;28;96766;-73
2022/10/26 09:46:28;;;;;;;11.27;6.20;;;;;;;19.11;53.37;101529.06;4948714;28;101102;-72
2022/10/26 09:48:58;;;;;;;13.20;5.95;;;;;;;19.27;53.39;101529.03;4947171;28;99170;-72
2022/10/26 09:51:26;;;;;;;10.48;6.03;;;;;;;19.72;52.55;101532.59;4950581;28;96786;-73
2022/10/26 09:53:55;;;;;;;13.25;6.00;;;;;;;19.74;52.08;101536.06;4950113;28;96936;-72
2022/10/26 09:56:23;;;;;;;13.85;5.88;;;;;;;19.90;51.96;101535.00;4945619;28;99076;-72
2022/10/26 09:58:58;;;;;;;12.18;5.28;;;;;;;19.76;52.31;101526.94;4950258;28;99118;-72
2022/10/26 10:01:31;;;;;;;19.33;5.55;;;;;;;20.02;51.55;101533.38;4950013;28;96732;-72
2022/10/26 10:04:18;;;;;;;18.00;5.53;;;;;;;20.09;50.67;101533.84;4948033;28;96911;-73
2022/10/26 10:06:48;;;;;;;9.73;5.10;;;;;;;20.04;50.99;101536.84;4949347;28;99035;-72
2022/10/26 10:09:16;;;;;;;8.93;5.10;;;;;;;20.27;50.43;101538.94;4951759;28;98147;-72
2022/10/26 10:11:48;;;;;;;8.10;5.00;;;;;;;20.19;50.49;101538.56;4952325;28;97180;-71
2022/10/26 10:14:16;;;;;;;10.07;5.13;;;;;;;20.37;50.24;101543.75;4947257;28;98751;-71
2022/10/26 10:16:50;;;;;;;10.50;4.72;;;;;;;20.11;50.22;101543.53;4952531;28;99495;-71
2022/10/26 10:19:23;;;;;;;11.45;4.85;;;;;;;20.27;50.59;101538.09;4951728;28;101605;-73
2022/10/26 10:21:53;;;;;;;12.60;4.60;;;;;;;20.64;49.82;101536.59;4947201;28;97624;-72
2022/10/26 10:24:28;;;;;;;13.10;5.20;;;;;;;20.78;49.47;101538.41;4952490;28;97307;-72
2022/10/26 10:27:03;;;;;;;11.63;5.20;;;;;;;20.71;49.34;101532.56;4951045;28;97749;-72
2022/10/26 10:29:31;;;;;;;10.75;4.38;;;;;;;20.73;49.43;101538.72;4950366;28;99421;-73
2022/10/26 10:32:00;;;;;;;15.60;4.55;;;;;;;20.51;50.20;101533.00;4952254;28;97363;-72
2022/10/26 10:34:27;;;;;;;11.65;4.25;;;;;;;20.74;49.52;101529.69;4952889;28;97073;-72
2022/10/26 10:36:55;;;;;;;9.85;4.30;;;;;;;20.88;49.03;101535.00;4954282;28;99094;-72
2022/10/26 10:39:35;;;;;;;9.40;3.72;;;;;;;20.92;48.91;101539.22;4955692;28;99177;-72
2022/10/26 10:42:03;;;;;;;8.00;4.05;;;;;;;20.63;49.49;101532.19;4952983;28;97010;-72
2022/10/26 10:44:32;;;;;;;6.60;3.33;;;;;;;20.67;49.52;101536.44;4952761;28;96950;-72
2022/10/26 10:47:03;;;;;;;9.30;3.70;;;;;;;20.64;49.53;101536.59;4952318;28;98970;-72
2022/10/26 10:49:30;;;;;;;15.07;4.63;;;;;;;20.68;49.38;101532.75;4949904;28;98065;-72
2022/10/26 10:51:59;;;;;;;8.20;4.22;;;;;;;20.78;49.35;101535.72;4951434;28;96957;-71
2022/10/26 10:54:30;;;;;;;6.30;3.17;;;;;;;20.83;48.97;101538.94;4950317;28;98075;-72
2022/10/26 10:57:06;;;;;;;9.27;3.50;;;;;;;20.94;48.88;101533.72;4951503;28;99102;-72
2022/10/26 10:59:42;;;;;;;6.20;3.13;;;;;;;20.69;48.88;101534.47;4951941;28;98798;-72
2022/10/26 11:02:45;;;;;;;8.43;3.28;;;;;;;20.65;49.17;101532.97;4948564;28;97147;-73
2022/10/26 11:05:22;;;;;;;10.70;3.38;;;;;;;20.79;49.08;101541.00;4948444;28;96902;-73
2022/10/26 11:07:55;;;;;;;6.82;3.03;;;;;;;20.91;49.08;101537.50;4951284;28;99281;-73
2022/10/26 11:10:26;;;;;;;11.82;3.70;;;;;;;21.13;48.82;101533.38;4954584;28;98884;-72
2022/10/26 11:12:57;;;;;;;10.27;3.30;;;;;;;20.93;48.70;101538.25;4951358;28;97199;-73
2022/10/26 11:15:26;;;;;;;9.20;2.85;;;;;;;20.97;49.39;101539.78;4951449;28;96916;-73
2022/10/26 11:17:58;;;;;;;9.13;3.38;;;;;;;21.09;48.97;101540.78;4951619;28;99010;-72
2022/10/26 11:20:28;;;;;;;6.30;2.80;;;;;;;21.13;48.92;101538.75;4952538;28;98736;-72
2022/10/26 11:23:07;;;;;;;7.80;2.75;;;;;;;20.92;48.95;101541.03;4951378;28;97194;-73
2022/10/26 11:25:41;;;;;;;12.27;3.03;;;;;;;21.08;48.06;101537.22;4950109;28;98276;-72
2022/10/26 11:28:15;;;;;;;9.35;3.17;;;;;;;21.07;46.53;101532.81;4951474;28;99496;-72
2022/10/26 11:30:47;;;;;;;7.22;2.55;;;;;;;21.14;47.49;101530.56;4948210;28;98708;-71
2022/10/26 11:33:20;;;;;;;8.55;2.30;;;;;;;21.18;46.64;101528.59;4949147;28;96872;-71